createdAt,value
2018-07-22T00:01:34.158Z,99685.00
2018-07-22T00:04:03.084Z,99683.30
2018-07-22T00:06:31.991Z,99687.07
2018-07-22T00:09:00.901Z,99684.34
2018-07-22T00:11:30.125Z,99685.64
2018-07-22T00:13:59.054Z,99685.88
2018-07-22T00:16:27.993Z,99687.68
2018-07-22T00:18:56.918Z,99688.20
2018-07-22T00:21:25.807Z,99687.45
2018-07-22T00:23:54.798Z,99681.44
2018-07-22T00:26:23.719Z,99680.45
2018-07-22T00:28:53.337Z,99680.94
2018-07-22T00:31:22.255Z,99683.45
2018-07-22T00:33:51.167Z,99680.42
2018-07-22T00:36:20.200Z,99684.20
2018-07-22T00:38:49.116Z,99682.71
2018-07-22T00:41:18.014Z,99675.65
2018-07-22T00:43:47.009Z,99675.67
2018-07-22T00:46:15.907Z,99679.98
2018-07-22T00:48:45.013Z,99678.17
2018-07-22T00:51:13.952Z,99673.40
2018-07-22T00:53:42.865Z,99676.38
2018-07-22T00:56:21.445Z,99675.47
2018-07-22T00:58:50.347Z,99674.10
2018-07-22T01:01:20.022Z,99676.58
2018-07-22T01:03:49.321Z,99675.00
2018-07-22T01:06:18.236Z,99673.08
2018-07-22T01:08:47.137Z,99672.04
2018-07-22T01:11:16.261Z,99666.97
2018-07-22T01:13:45.239Z,99668.67
2018-07-22T01:16:14.149Z,99668.09
2018-07-22T01:18:43.035Z,99670.53
2018-07-22T01:21:11.951Z,99665.86
2018-07-22T01:23:40.887Z,99664.12
2018-07-22T01:26:09.972Z,99669.89
2018-07-22T01:28:38.948Z,99662.19
2018-07-22T01:31:08.056Z,99663.72
2018-07-22T01:33:36.968Z,99662.03
2018-07-22T01:36:05.935Z,99661.61
2018-07-22T01:38:34.843Z,99667.30
2018-07-22T01:41:03.765Z,99666.52
2018-07-22T01:43:32.757Z,99663.59
2018-07-22T01:46:01.689Z,99666.41
2018-07-22T01:48:30.644Z,99669.70
2018-07-22T01:50:59.557Z,99674.46
2018-07-22T01:53:28.581Z,99676.68
2018-07-22T01:55:57.489Z,99671.25
2018-07-22T01:58:26.384Z,99672.08
2018-07-22T02:00:55.284Z,99677.07
2018-07-22T02:03:24.218Z,99673.64
2018-07-22T02:05:53.113Z,99670.34
2018-07-22T02:08:22.061Z,99677.85
2018-07-22T02:10:51.376Z,99677.94
2018-07-22T02:13:20.369Z,99679.78
2018-07-22T02:15:49.276Z,99679.55
2018-07-22T02:18:18.216Z,99674.70
2018-07-22T02:20:47.206Z,99676.17
2018-07-22T02:23:16.505Z,99672.31
2018-07-22T02:25:45.416Z,99674.69
2018-07-22T02:28:14.329Z,99671.00
2018-07-22T02:30:43.308Z,99673.92
2018-07-22T02:33:12.256Z,99675.09
2018-07-22T02:35:41.205Z,99677.56
2018-07-22T02:38:10.107Z,99673.05
2018-07-22T02:40:39.024Z,99682.01
2018-07-22T02:43:08.034Z,99682.13
2018-07-22T02:45:37.045Z,99679.54
2018-07-22T02:48:06.007Z,99674.69
2018-07-22T02:50:34.910Z,99679.66
2018-07-22T02:53:03.868Z,99678.84
2018-07-22T02:55:32.777Z,99685.30
2018-07-22T02:58:01.693Z,99682.59
2018-07-22T03:00:30.686Z,99683.73
2018-07-22T03:02:59.620Z,99683.73
2018-07-22T03:05:28.549Z,99685.58
2018-07-22T03:07:57.444Z,99686.03
2018-07-22T03:10:26.345Z,99686.70
2018-07-22T03:12:55.268Z,99684.09
2018-07-22T03:15:24.263Z,99690.31
2018-07-22T03:17:53.172Z,99693.17
2018-07-22T03:20:22.118Z,99691.47
2018-07-22T03:22:51.032Z,99692.71
2018-07-22T03:25:20.024Z,99690.23
2018-07-22T03:27:48.900Z,99689.33
2018-07-22T03:30:17.808Z,99691.84
2018-07-22T03:32:46.989Z,99688.31
2018-07-22T03:35:16.337Z,99685.84
2018-07-22T03:37:45.537Z,99685.93
2018-07-22T03:40:14.600Z,99690.45
2018-07-22T03:42:43.535Z,99689.88
2018-07-22T03:45:12.452Z,99686.23
2018-07-22T03:47:41.432Z,99686.58
2018-07-22T03:50:10.348Z,99692.78
2018-07-22T03:52:39.279Z,99692.66
2018-07-22T03:55:08.277Z,99698.66
2018-07-22T03:57:37.286Z,99693.77
2018-07-22T04:00:06.382Z,99700.19
2018-07-22T04:02:35.306Z,99702.44
2018-07-22T04:05:04.247Z,99698.81
2018-07-22T04:07:33.165Z,99703.20
2018-07-22T04:10:02.242Z,99708.62
2018-07-22T04:12:32.161Z,99707.80
2018-07-22T04:15:02.767Z,99700.55
2018-07-22T04:17:31.731Z,99701.84
2018-07-22T04:20:00.656Z,99703.59
2018-07-22T04:22:29.603Z,99705.14
2018-07-22T04:24:58.506Z,99705.59
2018-07-22T04:27:27.436Z,99717.09
2018-07-22T04:29:56.416Z,99717.38
2018-07-22T04:32:25.360Z,99717.19
2018-07-22T04:34:54.332Z,99715.48
2018-07-22T04:37:23.666Z,99722.80
2018-07-22T04:39:52.588Z,99727.30
2018-07-22T04:42:21.502Z,99722.33
2018-07-22T04:44:50.543Z,99724.06
2018-07-22T04:47:19.539Z,99725.83
2018-07-22T04:49:48.498Z,99719.06
2018-07-22T04:52:17.396Z,99731.47
2018-07-22T04:54:46.322Z,99726.54
2018-07-22T04:57:15.245Z,99735.00
2018-07-22T04:59:44.372Z,99732.30
2018-07-22T05:02:13.276Z,99725.75
2018-07-22T05:04:42.355Z,99727.69
2018-07-22T05:07:11.420Z,99730.91
2018-07-22T05:09:40.347Z,99731.34
2018-07-22T05:12:09.260Z,99740.22
2018-07-22T05:14:38.273Z,99725.31
2018-07-22T05:17:07.208Z,99732.60
2018-07-22T05:19:36.216Z,99738.70
2018-07-22T05:22:05.152Z,99740.47
2018-07-22T05:24:34.232Z,99748.31
2018-07-22T05:27:03.209Z,99743.11
2018-07-22T05:29:32.139Z,99741.27
2018-07-22T05:32:01.184Z,99746.75
2018-07-22T05:34:30.120Z,99743.16
2018-07-22T05:36:59.048Z,99752.06
2018-07-22T05:39:28.061Z,99747.40
2018-07-22T05:41:56.988Z,99745.05
2018-07-22T05:44:25.907Z,99743.83
2018-07-22T05:46:54.845Z,99739.88
2018-07-22T05:49:23.761Z,99738.37
2018-07-22T05:51:52.683Z,99741.42
2018-07-22T05:54:21.756Z,99742.86
2018-07-22T05:56:50.664Z,99746.17
2018-07-22T05:59:19.589Z,99744.55
2018-07-22T06:01:48.503Z,99747.80
2018-07-22T06:04:17.508Z,99750.33
2018-07-22T06:06:46.432Z,99751.76
2018-07-22T06:09:15.344Z,99753.41
2018-07-22T06:11:44.328Z,99753.78
2018-07-22T06:14:13.228Z,99752.44
2018-07-22T06:16:42.204Z,99750.31
2018-07-22T06:19:11.088Z,99752.80
2018-07-22T06:21:40.016Z,99758.52
2018-07-22T06:24:09.056Z,99756.69
2018-07-22T06:26:37.994Z,99755.38
2018-07-22T06:29:07.261Z,99757.34
2018-07-22T06:31:36.200Z,99750.00
2018-07-22T06:34:05.132Z,99750.73
2018-07-22T06:36:34.058Z,99747.63
2018-07-22T06:39:02.993Z,99746.84
2018-07-22T06:41:31.935Z,99747.03
2018-07-22T06:44:00.848Z,99747.12
2018-07-22T06:46:29.839Z,99745.09
2018-07-22T06:48:58.775Z,99744.11
2018-07-22T06:51:27.722Z,99742.63
2018-07-22T06:53:56.682Z,99741.48
2018-07-22T06:56:25.697Z,99743.59
2018-07-22T06:58:54.983Z,99738.11
2018-07-22T07:01:23.915Z,99739.09
2018-07-22T07:03:53.101Z,99744.20
2018-07-22T07:06:22.142Z,99744.16
2018-07-22T07:08:51.172Z,99738.09
2018-07-22T07:11:20.147Z,99741.28
2018-07-22T07:13:49.110Z,99739.02
2018-07-22T07:16:18.188Z,99735.19
2018-07-22T07:18:47.134Z,99741.52
2018-07-22T07:21:16.064Z,99737.99
2018-07-22T07:23:44.984Z,99740.89
2018-07-22T07:26:14.095Z,99737.05
2018-07-22T07:28:43.107Z,99738.26
2018-07-22T07:31:12.235Z,99744.45
2018-07-22T07:33:41.216Z,99744.82
2018-07-22T07:36:10.169Z,99740.05
2018-07-22T07:38:39.069Z,99737.33
2018-07-22T07:41:07.987Z,99740.69
2018-07-22T07:43:36.974Z,99739.74
2018-07-22T07:46:06.592Z,99735.82
2018-07-22T07:48:35.550Z,99743.28
2018-07-22T07:51:04.620Z,99742.66
2018-07-22T07:53:33.644Z,99745.84
2018-07-22T07:56:02.679Z,99739.96
2018-07-22T07:58:31.616Z,99733.27
2018-07-22T08:01:01.214Z,99735.38
2018-07-22T08:03:30.469Z,99742.30
2018-07-22T08:05:59.437Z,99737.85
2018-07-22T08:08:28.412Z,99737.84
2018-07-22T08:10:57.400Z,99739.02
2018-07-22T08:13:26.331Z,99742.23
2018-07-22T08:15:55.850Z,99741.24
2018-07-22T08:18:24.792Z,99740.67
2018-07-22T08:20:53.848Z,99740.91
2018-07-22T08:23:22.784Z,99737.38
2018-07-22T08:25:52.188Z,99742.73
2018-07-22T08:28:32.491Z,99744.53
2018-07-22T08:31:01.518Z,99739.49
2018-07-22T08:33:30.424Z,99745.12
2018-07-22T08:35:59.362Z,99744.04
2018-07-22T08:38:28.318Z,99737.88
2018-07-22T08:40:57.347Z,99732.52
2018-07-22T08:43:26.256Z,99739.70
2018-07-22T08:45:55.227Z,99736.15
2018-07-22T08:48:24.147Z,99733.30
2018-07-22T08:50:53.168Z,99735.11
2018-07-22T08:53:22.099Z,99726.17
2018-07-22T08:55:51.112Z,99732.19
2018-07-22T08:58:20.134Z,99723.66
2018-07-22T09:00:49.138Z,99734.19
2018-07-22T09:03:18.101Z,99729.61
2018-07-22T09:05:47.048Z,99720.60
2018-07-22T09:08:16.015Z,99726.90
2018-07-22T09:10:44.876Z,99730.41
2018-07-22T09:13:13.828Z,99729.16
2018-07-22T09:15:42.830Z,99729.48
2018-07-22T09:18:11.762Z,99728.42
2018-07-22T09:20:40.743Z,99729.58
2018-07-22T09:23:09.658Z,99729.17
2018-07-22T09:25:38.627Z,99730.89
2018-07-22T09:28:07.559Z,99728.66
2018-07-22T09:30:36.469Z,99728.80
2018-07-22T09:33:05.535Z,99732.20
2018-07-22T09:35:34.547Z,99732.06
2018-07-22T09:38:03.517Z,99729.27
2018-07-22T09:40:32.454Z,99721.84
2018-07-22T09:43:01.356Z,99729.59
2018-07-22T09:45:30.357Z,99720.29
2018-07-22T09:47:59.293Z,99716.86
2018-07-22T09:50:28.219Z,99726.11
2018-07-22T09:52:57.151Z,99722.86
2018-07-22T09:55:26.094Z,99721.61
2018-07-22T09:57:55.026Z,99723.14
2018-07-22T10:00:29.349Z,99723.16
2018-07-22T10:02:58.324Z,99719.36
2018-07-22T10:05:27.301Z,99727.59
2018-07-22T10:07:56.236Z,99727.14
2018-07-22T10:10:25.253Z,99725.38
2018-07-22T10:12:54.235Z,99735.04
2018-07-22T10:15:23.340Z,99732.75
2018-07-22T10:17:52.355Z,99725.33
2018-07-22T10:20:21.357Z,99732.23
2018-07-22T10:22:50.295Z,99730.52
2018-07-22T10:25:19.196Z,99728.30
2018-07-22T10:27:48.125Z,99729.06
2018-07-22T10:30:17.121Z,99722.61
2018-07-22T10:32:46.021Z,99723.45
2018-07-22T10:35:14.931Z,99729.34
2018-07-22T10:37:43.844Z,99723.96
2018-07-22T10:40:13.477Z,99719.45
2018-07-22T10:42:42.385Z,99728.41
2018-07-22T10:45:11.468Z,99719.34
2018-07-22T10:47:40.733Z,99719.55
2018-07-22T10:50:09.960Z,99720.48
2018-07-22T10:52:38.863Z,99717.20
2018-07-22T10:55:07.853Z,99722.62
2018-07-22T10:57:36.792Z,99714.88
2018-07-22T11:00:06.748Z,99709.22
2018-07-22T11:02:35.859Z,99709.30
2018-07-22T11:05:06.075Z,99709.84
2018-07-22T11:07:34.962Z,99701.00
2018-07-22T11:10:05.479Z,99713.37
2018-07-22T11:12:34.476Z,99712.53
2018-07-22T11:15:03.443Z,99713.94
2018-07-22T11:17:32.412Z,99716.01
2018-07-22T11:20:01.459Z,99718.45
2018-07-22T11:22:31.357Z,99711.47
2018-07-22T11:25:02.013Z,99713.41
2018-07-22T11:27:30.968Z,99720.78
2018-07-22T11:29:59.889Z,99713.56
2018-07-22T11:32:28.852Z,99707.42
2018-07-22T11:34:57.824Z,99708.10
2018-07-22T11:37:26.850Z,99712.85
2018-07-22T11:42:21.821Z,99697.02
2018-07-22T11:44:50.741Z,99701.20
2018-07-22T11:47:19.652Z,99694.44
2018-07-22T11:49:48.569Z,99696.87
2018-07-22T11:52:17.484Z,99701.16
2018-07-22T11:54:46.430Z,99699.02
2018-07-22T11:57:15.480Z,99704.19
2018-07-22T11:59:44.419Z,99693.23
2018-07-22T12:02:13.346Z,99694.45
2018-07-22T12:04:42.251Z,99695.39
2018-07-22T12:07:11.217Z,99701.88
2018-07-22T12:09:40.139Z,99698.48
2018-07-22T12:12:09.060Z,99710.20
2018-07-22T12:14:38.081Z,99704.77
2018-07-22T12:17:07.007Z,99715.66
2018-07-22T12:19:35.948Z,99707.44
2018-07-22T12:22:05.012Z,99711.59
2018-07-22T12:24:33.929Z,99709.96
2018-07-22T12:27:02.867Z,99712.82
2018-07-22T12:29:31.816Z,99710.48
2018-07-22T12:32:00.751Z,99717.73
2018-07-22T12:34:29.724Z,99717.33
2018-07-22T12:36:58.669Z,99712.70
2018-07-22T12:39:27.630Z,99710.61
2018-07-22T12:41:56.559Z,99716.01
2018-07-22T12:44:25.531Z,99714.47
2018-07-22T12:46:54.468Z,99710.39
2018-07-22T12:49:23.376Z,99712.73
2018-07-22T12:51:52.380Z,99715.94
2018-07-22T12:54:21.312Z,99707.75
2018-07-22T12:56:50.303Z,99714.02
2018-07-22T12:59:19.240Z,99715.08
2018-07-22T13:01:48.327Z,99710.99
2018-07-22T13:04:17.324Z,99712.80
2018-07-22T13:06:46.468Z,99705.81
2018-07-22T13:09:15.404Z,99705.58
2018-07-22T13:11:44.335Z,99696.03
2018-07-22T13:14:13.298Z,99689.05
2018-07-22T13:16:42.199Z,99695.98
2018-07-22T13:19:11.116Z,99693.80
2018-07-22T13:21:40.045Z,99698.70
2018-07-22T13:24:09.036Z,99698.30
2018-07-22T13:26:37.965Z,99696.89
2018-07-22T13:29:06.923Z,99695.64
2018-07-22T13:31:36.043Z,99703.67
2018-07-22T13:34:05.308Z,99704.08
2018-07-22T13:36:34.245Z,99697.11
2018-07-22T13:39:03.202Z,99696.70
2018-07-22T13:41:32.113Z,99698.14
2018-07-22T13:44:01.109Z,99701.00
2018-07-22T13:46:30.040Z,99703.05
2018-07-22T13:48:59.013Z,99700.47
2018-07-22T13:51:28.189Z,99699.41
2018-07-22T13:53:57.076Z,99703.14
2018-07-22T13:56:26.067Z,99702.07
2018-07-22T13:58:54.972Z,99701.27
2018-07-22T14:01:23.894Z,99694.97
2018-07-22T14:03:52.776Z,99695.27
2018-07-22T14:06:21.713Z,99700.33
2018-07-22T14:08:50.595Z,99689.41
2018-07-22T14:11:19.623Z,99684.56
2018-07-22T14:13:48.565Z,99687.00
2018-07-22T14:16:17.649Z,99684.37
2018-07-22T14:18:46.579Z,99686.30
2018-07-22T14:21:15.636Z,99677.48
2018-07-22T14:23:44.682Z,99676.45
2018-07-22T14:26:13.616Z,99679.03
2018-07-22T14:28:42.585Z,99672.47
2018-07-22T14:31:11.661Z,99676.94
2018-07-22T14:33:40.580Z,99677.48
2018-07-22T14:36:09.554Z,99672.47
2018-07-22T14:38:38.444Z,99675.02
2018-07-22T14:41:07.517Z,99675.13
2018-07-22T14:43:36.289Z,99673.50
2018-07-22T14:46:05.220Z,99671.34
2018-07-22T14:48:34.159Z,99668.26
2018-07-22T14:51:03.135Z,99672.32
2018-07-22T14:53:32.129Z,99676.47
2018-07-22T14:56:01.035Z,99673.54
2018-07-22T14:58:29.966Z,99683.84
2018-07-22T15:00:58.992Z,99673.03
2018-07-22T15:03:27.901Z,99672.34
2018-07-22T15:05:56.831Z,99678.05
2018-07-22T15:08:25.832Z,99681.33
2018-07-22T15:10:54.930Z,99684.86
2018-07-22T15:13:24.081Z,99682.34
2018-07-22T15:15:53.003Z,99683.37
2018-07-22T15:18:21.942Z,99682.91
2018-07-22T15:20:50.868Z,99684.20
2018-07-22T15:23:19.824Z,99687.86
2018-07-22T15:25:48.719Z,99682.34
2018-07-22T15:28:17.655Z,99686.00
2018-07-22T15:30:46.708Z,99682.94
2018-07-22T15:33:15.634Z,99682.53
2018-07-22T15:35:44.554Z,99684.67
2018-07-22T15:38:13.660Z,99675.18
2018-07-22T15:40:42.690Z,99689.59
2018-07-22T15:43:11.695Z,99688.13
2018-07-22T15:45:40.614Z,99696.63
2018-07-22T15:48:09.514Z,99689.63
2018-07-22T15:50:38.596Z,99696.52
2018-07-22T15:53:07.717Z,99693.02
2018-07-22T15:55:36.957Z,99703.98
2018-07-22T15:58:05.692Z,99702.64
2018-07-22T16:00:34.827Z,99708.59
2018-07-22T16:03:03.824Z,99707.96
2018-07-22T16:05:32.768Z,99715.12
2018-07-22T16:08:01.789Z,99715.78
2018-07-22T16:10:30.742Z,99716.08
2018-07-22T16:12:59.673Z,99714.37
2018-07-22T16:15:28.726Z,99706.48
2018-07-22T16:17:57.746Z,99713.58
2018-07-22T16:20:26.673Z,99715.25
2018-07-22T16:22:55.620Z,99718.33
2018-07-22T16:25:24.589Z,99718.67
2018-07-22T16:27:53.600Z,99721.26
2018-07-22T16:30:22.563Z,99729.02
2018-07-22T16:32:51.548Z,99730.34
2018-07-22T16:35:20.629Z,99727.76
2018-07-22T16:37:49.584Z,99727.09
2018-07-22T16:40:18.631Z,99729.06
2018-07-22T16:42:47.532Z,99730.05
2018-07-22T16:45:16.444Z,99725.02
2018-07-22T16:47:45.363Z,99728.16
2018-07-22T16:50:14.367Z,99728.40
2018-07-22T16:52:43.257Z,99729.03
2018-07-22T16:55:12.198Z,99725.08
2018-07-22T16:57:41.112Z,99731.14
2018-07-22T17:00:10.313Z,99731.78
2018-07-22T17:02:39.315Z,99728.40
2018-07-22T17:05:08.375Z,99720.56
2018-07-22T17:07:38.160Z,99723.92
2018-07-22T17:10:07.092Z,99721.98
2018-07-22T17:12:36.033Z,99726.28
2018-07-22T17:15:04.961Z,99721.55
2018-07-22T17:17:33.854Z,99718.80
2018-07-22T17:20:02.967Z,99718.75
2018-07-22T17:22:31.917Z,99717.61
2018-07-22T17:25:00.833Z,99720.47
2018-07-22T17:27:29.740Z,99726.95
2018-07-22T17:29:58.730Z,99724.77
2018-07-22T17:32:27.758Z,99727.61
2018-07-22T17:34:56.672Z,99733.30
2018-07-22T17:37:26.043Z,99730.75
2018-07-22T17:39:58.724Z,99731.41
2018-07-22T17:42:28.957Z,99733.33
2018-07-22T17:44:58.437Z,99737.45
2018-07-22T17:47:28.252Z,99737.07
2018-07-22T17:49:57.717Z,99741.37
2018-07-22T17:52:27.152Z,99741.22
2018-07-22T17:54:56.068Z,99742.56
2018-07-22T17:57:25.004Z,99742.81
2018-07-22T17:59:54.114Z,99745.75
2018-07-22T18:02:23.023Z,99744.41
2018-07-22T18:04:52.414Z,99753.44
2018-07-22T18:07:21.617Z,99761.48
2018-07-22T18:15:46.629Z,99759.53
2018-07-22T18:18:16.132Z,99764.02
2018-07-22T18:20:47.071Z,99768.90
2018-07-22T18:23:16.045Z,99765.57
2018-07-22T18:25:45.546Z,99770.84
2018-07-22T18:28:15.204Z,99779.85
2018-07-22T18:30:44.764Z,99772.38
2018-07-22T18:33:13.659Z,99775.31
2018-07-22T18:35:42.624Z,99780.41
2018-07-22T18:38:11.599Z,99778.63
2018-07-22T18:40:40.568Z,99789.59
2018-07-22T18:43:09.521Z,99787.04
2018-07-22T18:45:38.547Z,99787.55
2018-07-22T18:48:07.473Z,99783.22
2018-07-22T18:50:36.452Z,99790.86
2018-07-22T18:53:05.460Z,99789.48
2018-07-22T18:55:34.480Z,99802.58
2018-07-22T18:58:03.562Z,99804.88
2018-07-22T19:00:32.471Z,99811.34
2018-07-22T19:03:01.529Z,99818.37
2018-07-22T19:05:30.457Z,99814.04
2018-07-22T19:07:59.403Z,99815.19
2018-07-22T19:10:28.324Z,99815.73
2018-07-22T19:12:57.562Z,99824.33
2018-07-22T19:15:27.638Z,99826.88
2018-07-22T19:17:56.540Z,99834.65
2018-07-22T19:20:25.487Z,99832.23
2018-07-22T19:22:54.439Z,99834.66
2018-07-22T19:25:23.357Z,99839.89
2018-07-22T19:27:52.294Z,99840.62
2018-07-22T19:30:21.232Z,99839.01
2018-07-22T19:32:50.178Z,99844.25
2018-07-22T19:35:19.094Z,99845.33
2018-07-22T19:37:48.047Z,99844.73
2018-07-22T19:40:16.992Z,99847.03
2018-07-22T19:42:45.883Z,99855.00
2018-07-22T19:45:14.851Z,99855.52
2018-07-22T19:47:43.813Z,99853.09
2018-07-22T19:50:12.747Z,99864.36
2018-07-22T19:52:41.651Z,99860.95
2018-07-22T19:55:10.597Z,99857.61
2018-07-22T19:57:39.604Z,99863.06
2018-07-22T20:00:08.569Z,99862.17
2018-07-22T20:02:37.510Z,99867.39
2018-07-22T20:05:06.434Z,99869.27
2018-07-22T20:07:35.346Z,99864.91
2018-07-22T20:10:04.750Z,99875.14
2018-07-22T20:12:33.657Z,99882.77
2018-07-22T20:15:02.570Z,99879.64
2018-07-22T20:17:31.481Z,99881.66
2018-07-22T20:20:00.393Z,99884.78
2018-07-22T20:22:29.401Z,99879.31
2018-07-22T20:24:58.348Z,99882.56
2018-07-22T20:27:27.267Z,99881.11
2018-07-22T20:29:56.161Z,99884.78
2018-07-22T20:32:25.050Z,99892.98
2018-07-22T20:34:54.038Z,99888.56
2018-07-22T20:37:22.977Z,99888.01
2018-07-22T20:39:51.894Z,99894.37
2018-07-22T20:42:20.808Z,99892.39
2018-07-22T20:44:49.727Z,99894.31
2018-07-22T20:47:18.760Z,99892.55
2018-07-22T20:49:47.807Z,99892.29
2018-07-22T20:52:16.752Z,99891.59
2018-07-22T20:54:45.697Z,99892.54
2018-07-22T20:57:14.616Z,99894.11
2018-07-22T20:59:43.511Z,99892.31
2018-07-22T21:02:12.451Z,99892.98
2018-07-22T21:04:41.354Z,99890.41
2018-07-22T21:07:10.604Z,99895.30
2018-07-22T21:09:39.529Z,99889.67
2018-07-22T21:12:50.187Z,99893.69
2018-07-22T21:15:19.248Z,99890.95
2018-07-22T21:17:49.099Z,99897.00
2018-07-22T21:20:18.857Z,99896.19
2018-07-22T21:22:47.758Z,99903.60
2018-07-22T21:25:17.262Z,99917.06
2018-07-22T21:27:46.285Z,99915.50
2018-07-22T21:30:15.740Z,99913.31
2018-07-22T21:32:44.613Z,99916.83
2018-07-22T21:35:13.531Z,99923.15
2018-07-22T21:37:42.443Z,99923.88
2018-07-22T21:40:11.337Z,99922.24
2018-07-22T21:42:40.239Z,99921.97
2018-07-22T21:45:09.393Z,99924.50
2018-07-22T21:47:38.348Z,99920.59
2018-07-22T21:50:08.063Z,99918.88
2018-07-22T21:52:36.965Z,99918.88
2018-07-22T21:55:06.185Z,99923.13
2018-07-22T21:57:35.280Z,99928.50
2018-07-22T22:00:06.590Z,99928.78
2018-07-22T22:02:35.583Z,99935.61
2018-07-22T22:05:04.930Z,99934.19
2018-07-22T22:07:33.808Z,99926.48
2018-07-22T22:10:02.812Z,99924.53
2018-07-22T22:12:32.384Z,99933.03
2018-07-22T22:15:01.268Z,99929.14
2018-07-22T22:17:30.164Z,99931.66
2018-07-22T22:19:59.038Z,99931.38
2018-07-22T22:22:27.932Z,99932.53
2018-07-22T22:24:56.952Z,99936.22
2018-07-22T22:27:26.866Z,99930.10
2018-07-22T22:29:55.813Z,99932.05
2018-07-22T22:32:24.975Z,99924.73
2018-07-22T22:34:53.876Z,99925.59
2018-07-22T22:37:22.779Z,99928.02
2018-07-22T22:39:51.696Z,99928.61
2018-07-22T22:42:20.614Z,99933.34
2018-07-22T22:44:49.527Z,99939.95
2018-07-22T22:47:18.420Z,99939.95
2018-07-22T22:49:47.324Z,99940.16
2018-07-22T22:52:16.225Z,99941.61
2018-07-22T22:54:45.170Z,99942.19
2018-07-22T22:57:14.024Z,99943.76
2018-07-22T22:59:42.915Z,99939.17
2018-07-22T23:02:11.838Z,99935.28
2018-07-22T23:04:40.751Z,99937.66
2018-07-22T23:07:09.680Z,99936.35
2018-07-22T23:09:38.596Z,99943.66
2018-07-22T23:12:07.491Z,99937.56
2018-07-22T23:14:36.399Z,99929.19
2018-07-22T23:17:05.324Z,99933.44
2018-07-22T23:19:34.249Z,99936.78
2018-07-22T23:22:03.136Z,99934.84
2018-07-22T23:24:32.025Z,99928.42
2018-07-22T23:27:00.952Z,99930.84
2018-07-22T23:29:29.856Z,99929.76
2018-07-22T23:31:58.764Z,99926.36
2018-07-22T23:34:27.652Z,99931.13
2018-07-22T23:36:56.583Z,99926.16
2018-07-22T23:39:25.465Z,99932.52
2018-07-22T23:41:54.379Z,99939.78
2018-07-22T23:44:23.290Z,99935.38
2018-07-22T23:46:52.208Z,99938.82
2018-07-22T23:49:21.103Z,99936.78
2018-07-22T23:51:50.017Z,99935.66
2018-07-22T23:54:18.910Z,99936.00
2018-07-22T23:56:47.805Z,99933.55
2018-07-22T23:59:16.715Z,99929.80
